Aérodrome :
LOGIN :

S'inscrire | Disclaimer

   EN    FR    IT 

 










Légende :    VFR   VFR Marginal   IFR   IFR Intensif   IFR Très Intensif
Visi : 
Plafond : 
>= 8 km
>= 3000ft
5 à 8 km
1000 à 3000 ft
1500m à 5 km
500 à 1000 ft
800 à 1500m
200 à 500 ft
< 800m
< 200 ft
Symboles :   Orages  Brouillard  Fortes neiges  Fortes précipitations  Vent > 20 kt
SIGMETs :   Divers  Orages  Givrage  Turbulence  Onde Orograph.  Cendres Volcan.







- Altitude de l'aérodrome : 468 ft
- Code IATA : GRO


LEGE - Girona Costa Brava

DERNIER METAR :
  • 152200Z 00000KT CAVOK 06/06 Q1018

METARs EXPIRÉS :
  • 152130Z 04003KT CAVOK 05/05 Q1018
  • 152100Z VRB01KT CAVOK 06/06 Q1019
  • 152030Z VRB02KT CAVOK 06/06 Q1019
  • 152000Z 00000KT CAVOK 07/07 Q1019
  • 151930Z VRB02KT CAVOK 08/07 Q1019

TAF TAF LEGE
Valide du 15 à 18h jusqu'au 16 à 18h UTC


151700Z 1518/1618 34004KT 9999 SCT030 TX14/1613Z TN05/1606Z
TEMPO 1521/1606 2000 BR BKN010
PROB40
TEMPO 1610/1616 4000 RA BKN020
Pas de NOTAMs connus pour ce terrain.



MET'MAP, la Météo Aéronautique d'un coup d'oeil ! - Copyright ORBIFLY Décembre 2007 - Disclaimer

ORBIFLY MET'MAP TEAM :

Programmation & Développement : Alexandra Zaïnal
Conception & Développement : Baudouin d'Aumeries
Co-Programmation & Développement : Marc-Olivier Méhu
Soutien technique & logistique : Manuel Goepfert

Contact : metmap@orbifly.com




SOURCES & CREDITS :

   NOAA